Aviation Digital Data Service (ADDS)

Output produced by METARs form (2326 UTC 31 August 2016)
found at http://aviationweather.gov/adds/metars/
 
KGMU 311737Z 3118/0118 08005KT P6SM SCT060 
     FM010200 13005KT P6SM FEW070 SCT150 
     FM011300 25003KT P6SM FEW080 SCT120